Time;durP1;ratioP1;P1;durP2;ratioP2;P2;SDS_P1;SDS_P2;PMS_P1;PMS_P2;Temp;Humidity;BMP_temperature;BMP_pressure;BME280_temperature;BME280_humidity;BME280_pressure;Samples;Min_cycle;Max_cycle;Signal;HPM_P1;HPM_P2
2022/03/20 00:02:22;;;;;;;29.02;16.15;;;;;;;3.35;58.77;100749.81;4944819;28;20039;-53
2022/03/20 00:04:48;;;;;;;29.52;17.15;;;;;;;3.31;58.86;100751.09;4950032;28;20110;-54
2022/03/20 00:07:13;;;;;;;33.00;17.45;;;;;;;3.27;59.43;100744.44;4945531;28;20055;-51
2022/03/20 00:09:39;;;;;;;23.85;14.93;;;;;;;3.42;58.02;100742.84;4943376;29;20090;-50
2022/03/20 00:12:08;;;;;;;27.63;15.88;;;;;;;3.34;58.19;100734.88;4933881;28;20056;-51
2022/03/20 00:14:33;;;;;;;26.88;15.90;;;;;;;3.30;58.30;100736.19;4946623;29;20042;-55
2022/03/20 00:16:59;;;;;;;29.85;15.88;;;;;;;3.45;57.10;100729.31;4948004;28;20203;-54
2022/03/20 00:19:26;;;;;;;25.20;15.48;;;;;;;3.32;57.52;100728.91;4943957;28;20561;-53
2022/03/20 00:21:51;;;;;;;25.52;14.27;;;;;;;3.28;58.10;100731.03;4941333;28;20043;-54
2022/03/20 00:24:18;;;;;;;32.13;16.45;;;;;;;3.29;58.01;100726.56;4941670;29;20023;-54
2022/03/20 00:26:43;;;;;;;26.08;14.80;;;;;;;3.26;58.05;100718.94;4949541;28;20050;-53
2022/03/20 00:29:09;;;;;;;27.33;15.75;;;;;;;3.23;58.07;100707.66;4949042;29;20133;-52
2022/03/20 00:31:35;;;;;;;20.63;13.90;;;;;;;3.28;57.48;100714.31;4947540;28;20047;-50
2022/03/20 00:34:00;;;;;;;22.90;12.10;;;;;;;3.29;57.40;100700.06;4940153;28;20141;-52
2022/03/20 00:36:26;;;;;;;27.67;15.70;;;;;;;3.29;57.46;100692.13;4948573;28;20044;-53
2022/03/20 00:38:51;;;;;;;22.98;14.15;;;;;;;3.29;57.18;100694.75;4939405;28;20462;-50
2022/03/20 00:41:16;;;;;;;32.55;15.52;;;;;;;3.38;56.40;100693.81;4936002;28;20078;-50
2022/03/20 00:43:42;;;;;;;29.20;16.65;;;;;;;3.43;56.38;100692.34;4944837;29;20413;-51
2022/03/20 00:46:09;;;;;;;24.60;13.35;;;;;;;3.47;55.71;100684.91;4950565;28;20053;-50
2022/03/20 00:48:34;;;;;;;22.10;14.02;;;;;;;3.44;55.66;100686.06;4968506;28;20788;-52
2022/03/20 00:51:03;;;;;;;24.13;12.95;;;;;;;3.43;55.92;100678.25;4962544;28;20094;-54
2022/03/20 00:53:30;;;;;;;19.77;12.98;;;;;;;3.52;54.88;100690.56;4964653;28;20045;-50
2022/03/20 00:55:55;;;;;;;24.00;12.82;;;;;;;3.46;55.36;100669.97;4962412;28;20087;-53
2022/03/20 00:58:21;;;;;;;24.80;11.95;;;;;;;3.48;54.55;100667.19;4961895;28;20034;-50
2022/03/20 01:00:46;;;;;;;26.17;13.35;;;;;;;3.42;54.68;100669.50;4967908;28;20039;-50
2022/03/20 01:03:12;;;;;;;25.92;14.95;;;;;;;3.34;55.39;100665.97;4967460;28;20027;-50
2022/03/20 01:05:37;;;;;;;22.90;12.60;;;;;;;3.25;55.70;100657.16;4963224;28;20275;-50
2022/03/20 01:08:03;;;;;;;27.60;15.68;;;;;;;3.23;55.62;100652.03;4970509;28;20464;-50
2022/03/20 01:10:28;;;;;;;21.90;13.80;;;;;;;3.17;55.71;100650.03;4970233;28;20058;-53
2022/03/20 01:12:54;;;;;;;26.42;15.73;;;;;;;3.15;55.85;100649.34;4966808;28;20042;-50
2022/03/20 01:15:20;;;;;;;26.20;14.18;;;;;;;3.14;55.66;100630.94;4966717;28;20560;-51
2022/03/20 01:17:45;;;;;;;24.45;14.27;;;;;;;3.08;55.64;100624.47;4969055;28;20061;-50
2022/03/20 01:20:11;;;;;;;23.10;14.48;;;;;;;3.04;55.62;100625.78;4961835;28;20047;-50
2022/03/20 01:22:37;;;;;;;29.27;14.13;;;;;;;3.01;55.88;100615.50;4971894;28;20037;-50
2022/03/20 01:25:04;;;;;;;27.55;15.32;;;;;;;2.94;56.07;100617.13;4963745;28;20027;-50
2022/03/20 01:27:29;;;;;;;32.92;16.27;;;;;;;2.84;56.55;100611.13;4965224;28;20127;-53
2022/03/20 01:29:55;;;;;;;35.38;16.88;;;;;;;2.72;57.16;100603.47;4969314;28;20122;-52
2022/03/20 01:32:20;;;;;;;30.25;15.85;;;;;;;2.68;57.28;100607.41;4972116;28;20371;-50
2022/03/20 01:34:47;;;;;;;24.20;14.45;;;;;;;2.61;57.28;100594.97;4969718;28;20090;-52
2022/03/20 01:37:12;;;;;;;28.58;15.90;;;;;;;2.61;57.16;100595.78;4972844;28;20035;-50
2022/03/20 01:39:38;;;;;;;29.40;15.85;;;;;;;2.49;57.56;100589.91;4970629;28;20027;-52
2022/03/20 01:42:05;;;;;;;26.85;15.32;;;;;;;2.46;57.48;100578.81;4967653;28;20571;-50
2022/03/20 01:44:34;;;;;;;32.15;16.80;;;;;;;2.37;58.06;100570.00;4974755;28;20031;-50
2022/03/20 01:47:00;;;;;;;29.60;15.77;;;;;;;2.30;58.24;100567.16;4973864;28;20039;-53
2022/03/20 01:49:26;;;;;;;21.63;14.25;;;;;;;2.29;58.08;100565.47;4963105;28;20420;-52
2022/03/20 01:54:35;;;;;;;28.15;14.80;;;;;;;2.21;58.30;100557.50;4966739;28;20057;-51
2022/03/20 01:57:00;;;;;;;28.58;15.63;;;;;;;2.19;58.09;100558.66;4973537;28;20501;-52
2022/03/20 01:59:26;;;;;;;27.70;14.60;;;;;;;2.17;58.12;100553.50;4974625;28;20527;-51
2022/03/20 02:01:51;;;;;;;30.42;14.80;;;;;;;2.15;57.86;100555.50;4966037;28;20039;-53
2022/03/20 02:04:17;;;;;;;29.50;15.10;;;;;;;2.15;58.13;100551.03;4970053;28;20042;-53
2022/03/20 02:06:42;;;;;;;25.00;15.52;;;;;;;2.02;58.61;100558.56;4963446;28;20047;-52
2022/03/20 02:09:08;;;;;;;26.23;15.00;;;;;;;2.05;58.72;100562.69;4960686;28;20039;-51
2022/03/20 02:11:34;;;;;;;24.83;14.77;;;;;;;1.99;58.27;100561.47;4985486;28;20134;-50
2022/03/20 02:14:00;;;;;;;57.03;22.58;;;;;;;1.94;58.23;100556.66;4977223;28;20024;-52
2022/03/20 02:16:25;;;;;;;92.93;31.48;;;;;;;1.84;58.93;100550.63;4969683;28;20485;-51
2022/03/20 02:18:51;;;;;;;69.60;24.55;;;;;;;1.80;58.83;100541.34;4965137;28;20019;-52
2022/03/20 02:21:26;;;;;;;52.33;19.75;;;;;;;1.77;58.90;100528.44;4960971;28;20083;-53
2022/03/20 02:23:52;;;;;;;47.38;20.58;;;;;;;1.79;58.81;100523.81;4957906;28;20086;-53
2022/03/20 02:26:17;;;;;;;30.67;15.70;;;;;;;1.74;58.86;100534.03;4968008;28;20481;-53
2022/03/20 02:28:43;;;;;;;34.63;15.48;;;;;;;1.72;58.96;100531.56;4964900;28;20031;-50
2022/03/20 02:31:08;;;;;;;28.23;15.75;;;;;;;1.63;60.24;100526.34;4964787;28;20045;-53
2022/03/20 02:33:35;;;;;;;25.40;14.20;;;;;;;1.58;59.54;100525.97;4971736;28;20035;-53
2022/03/20 02:36:01;;;;;;;28.67;15.70;;;;;;;1.54;59.79;100527.25;4970491;28;20050;-53
2022/03/20 02:38:26;;;;;;;28.80;16.00;;;;;;;1.45;60.98;100529.84;4969655;28;20540;-52
2022/03/20 02:40:54;;;;;;;29.08;15.15;;;;;;;1.36;61.58;100533.38;4969629;28;20042;-53
2022/03/20 02:43:19;;;;;;;29.20;14.68;;;;;;;1.29;61.49;100521.75;4971445;28;20023;-50
2022/03/20 02:45:45;;;;;;;29.83;15.57;;;;;;;1.33;64.65;100523.13;4964194;28;20054;-51
2022/03/20 02:48:10;;;;;;;31.17;15.52;;;;;;;1.20;63.15;100518.22;4962386;28;20042;-50
2022/03/20 02:50:36;;;;;;;32.63;16.27;;;;;;;1.04;63.11;100516.22;4961886;28;20058;-51
2022/03/20 02:53:13;;;;;;;28.83;15.48;;;;;;;0.73;63.94;100514.91;4962944;28;20035;-54
2022/03/20 02:55:40;;;;;;;26.05;15.07;;;;;;;0.52;65.05;100521.22;4961418;28;20133;-53
2022/03/20 02:58:09;;;;;;;25.38;15.50;;;;;;;0.43;65.85;100514.19;4970516;28;20030;-53
2022/03/20 03:00:37;;;;;;;28.08;14.93;;;;;;;0.36;65.65;100518.38;4970558;28;20053;-52
2022/03/20 03:03:04;;;;;;;27.30;15.48;;;;;;;0.25;66.24;100508.00;4959517;28;20078;-50
2022/03/20 03:05:32;;;;;;;25.45;14.13;;;;;;;0.21;66.92;100502.19;4978205;28;20079;-52
2022/03/20 03:10:55;;;;;;;30.75;16.25;;;;;;;0.16;67.33;100493.88;4965319;28;20468;-50
2022/03/20 03:13:24;;;;;;;29.65;15.70;;;;;;;0.01;67.58;100487.41;4969096;28;20027;-50
2022/03/20 03:15:53;;;;;;;26.35;14.82;;;;;;;0.09;69.71;100485.72;4970234;28;20117;-51
2022/03/20 03:18:20;;;;;;;27.02;15.68;;;;;;;0.04;67.20;100477.41;4955514;28;20043;-53
2022/03/20 03:20:45;;;;;;;27.35;15.27;;;;;;;-0.02;67.85;100464.81;4959880;28;20128;-52
2022/03/20 03:23:11;;;;;;;30.45;15.85;;;;;;;0.01;68.00;100456.63;4964507;28;20131;-53
2022/03/20 03:25:40;;;;;;;27.33;15.50;;;;;;;0.07;69.14;100450.75;4970173;28;20047;-51
2022/03/20 03:28:06;;;;;;;31.55;16.48;;;;;;;0.07;68.88;100448.13;4983095;28;20102;-50
2022/03/20 03:30:32;;;;;;;32.47;16.58;;;;;;;-0.02;68.22;100455.09;4965861;28;20232;-52
2022/03/20 03:32:57;;;;;;;26.98;15.70;;;;;;;0.16;71.83;100449.88;4965395;28;20057;-51
2022/03/20 03:38:07;;;;;;;27.95;15.38;;;;;;;0.32;67.46;100465.06;4969721;28;20468;-52
2022/03/20 03:40:33;;;;;;;28.65;15.90;;;;;;;0.13;67.81;100458.09;4967526;28;20551;-52
2022/03/20 03:42:59;;;;;;;30.02;16.88;;;;;;;0.15;68.61;100461.44;4964727;28;20039;-50
2022/03/20 03:45:25;;;;;;;28.77;16.23;;;;;;;0.07;68.85;100456.03;4966055;28;20505;-50
2022/03/20 03:47:51;;;;;;;28.02;15.25;;;;;;;0.26;67.51;100449.03;4964510;28;20594;-53
2022/03/20 03:50:16;;;;;;;30.58;16.83;;;;;;;0.27;67.35;100445.41;4963895;28;20432;-52
2022/03/20 03:52:42;;;;;;;25.60;15.50;;;;;;;0.32;70.02;100435.25;4965073;28;20030;-52
2022/03/20 03:55:07;;;;;;;29.02;15.77;;;;;;;0.39;66.53;100431.03;4969189;28;20034;-53
2022/03/20 03:57:32;;;;;;;26.98;15.48;;;;;;;0.31;67.03;100423.88;4961898;28;20053;-50
2022/03/20 03:59:58;;;;;;;26.90;16.05;;;;;;;0.16;67.93;100420.88;4966555;28;20045;-52
2022/03/20 04:02:23;;;;;;;30.55;16.45;;;;;;;0.13;68.00;100415.91;4958302;28;20039;-50
2022/03/20 04:04:49;;;;;;;29.80;15.30;;;;;;;0.15;68.18;100424.50;4967432;28;20624;-54
2022/03/20 04:07:18;;;;;;;26.77;15.15;;;;;;;0.18;68.32;100428.66;4968226;28;20509;-53
2022/03/20 04:09:44;;;;;;;26.48;14.90;;;;;;;0.22;68.28;100435.28;4968339;28;20060;-54
2022/03/20 04:12:10;;;;;;;27.73;15.43;;;;;;;0.20;67.78;100432.81;4968440;28;20516;-51
2022/03/20 04:14:36;;;;;;;27.38;15.23;;;;;;;0.25;68.70;100426.25;4951884;28;20031;-50
2022/03/20 04:17:03;;;;;;;34.97;15.30;;;;;;;0.27;67.87;100416.41;4967344;28;20043;-50
2022/03/20 04:19:29;;;;;;;26.63;15.40;;;;;;;0.35;68.24;100416.47;4967871;28;20054;-54
2022/03/20 04:21:54;;;;;;;26.00;14.82;;;;;;;0.34;67.81;100418.28;4960879;28;20051;-51
2022/03/20 04:24:19;;;;;;;27.58;14.88;;;;;;;0.47;66.55;100410.03;4957348;28;20067;-51
2022/03/20 04:26:46;;;;;;;29.17;15.35;;;;;;;0.52;65.82;100405.13;4964863;28;20042;-51
2022/03/20 04:29:11;;;;;;;32.90;16.65;;;;;;;0.56;66.85;100406.50;4961207;28;20031;-52
2022/03/20 04:31:37;;;;;;;26.23;15.30;;;;;;;0.59;67.11;100422.03;4961593;28;20039;-52
2022/03/20 04:34:04;;;;;;;26.60;15.35;;;;;;;0.54;66.64;100413.75;4967285;28;20036;-51
2022/03/20 04:36:30;;;;;;;31.70;17.13;;;;;;;0.49;67.25;100426.53;4960147;28;20039;-51
2022/03/20 04:38:56;;;;;;;25.70;14.88;;;;;;;0.62;67.79;100437.59;4962369;28;20049;-53
2022/03/20 04:41:21;;;;;;;25.92;13.98;;;;;;;0.59;66.62;100437.88;4965117;28;20134;-50
2022/03/20 04:43:48;;;;;;;29.15;16.65;;;;;;;0.55;66.84;100443.59;4966495;28;20031;-54
2022/03/20 04:46:14;;;;;;;25.67;15.35;;;;;;;0.46;67.68;100432.13;4961923;28;20039;-52
2022/03/20 04:59:56;;;;;;;30.08;14.45;;;;;;;0.55;68.98;100420.69;4955954;28;20477;-51
2022/03/20 05:02:22;;;;;;;30.05;15.73;;;;;;;0.60;67.82;100434.28;4943060;28;20379;-53
2022/03/20 05:04:47;;;;;;;29.33;15.85;;;;;;;0.52;67.08;100434.16;4963834;28;20039;-51
2022/03/20 05:07:13;;;;;;;28.48;15.07;;;;;;;0.54;67.86;100434.84;4938178;28;20052;-51
2022/03/20 05:15:07;;;;;;;25.92;15.30;;;;;;;0.37;68.55;100444.38;4935308;28;20519;-52
2022/03/20 05:17:32;;;;;;;27.13;16.35;;;;;;;0.33;68.44;100447.47;4931733;28;20035;-50
2022/03/20 05:19:58;;;;;;;29.73;15.70;;;;;;;0.32;68.26;100445.78;4934251;29;20171;-52
2022/03/20 05:22:23;;;;;;;25.02;14.45;;;;;;;0.21;69.26;100445.00;4962798;28;20054;-51
2022/03/20 05:24:49;;;;;;;27.15;14.63;;;;;;;0.51;66.93;100439.59;4952024;28;20058;-50
2022/03/20 05:27:14;;;;;;;25.48;15.77;;;;;;;0.50;71.14;100433.50;4964040;28;20470;-52
2022/03/20 05:29:40;;;;;;;26.27;15.88;;;;;;;0.24;69.14;100433.34;4961973;28;20081;-52
2022/03/20 05:32:06;;;;;;;26.52;14.43;;;;;;;0.44;69.04;100423.53;4967519;28;20031;-53
2022/03/20 05:34:33;;;;;;;28.25;15.18;;;;;;;0.47;68.32;100428.50;4966826;28;20447;-50
2022/03/20 05:36:59;;;;;;;25.75;15.95;;;;;;;0.54;68.49;100420.84;4962038;28;20085;-52
2022/03/20 05:39:25;;;;;;;26.55;16.02;;;;;;;0.46;68.61;100418.94;4961682;28;20484;-51
2022/03/20 05:41:51;;;;;;;27.45;16.55;;;;;;;0.42;68.85;100409.66;4963763;28;20046;-53
2022/03/20 05:44:18;;;;;;;32.15;15.90;;;;;;;0.45;69.00;100404.09;4963450;28;20038;-52
2022/03/20 05:46:46;;;;;;;33.88;16.55;;;;;;;0.50;68.08;100401.00;4964113;28;20058;-55
2022/03/20 05:49:12;;;;;;;26.83;15.90;;;;;;;0.37;69.00;100388.97;4968037;28;20041;-54
2022/03/20 05:51:38;;;;;;;28.63;15.75;;;;;;;0.25;69.71;100384.91;4967485;28;20039;-54
2022/03/20 05:54:04;;;;;;;28.92;16.10;;;;;;;0.31;70.20;100389.59;4968935;28;20093;-53
2022/03/20 05:59:16;;;;;;;30.58;17.20;;;;;;;0.62;67.52;100392.75;4968041;28;20396;-53
2022/03/20 06:01:42;;;;;;;31.75;16.73;;;;;;;0.80;66.68;100397.16;4964020;28;20043;-53
2022/03/20 06:04:08;;;;;;;30.38;16.92;;;;;;;0.89;66.78;100398.91;4966809;28;20045;-51
2022/03/20 06:06:35;;;;;;;29.85;16.27;;;;;;;0.87;69.64;100398.22;4960980;28;20042;-51
2022/03/20 06:09:00;;;;;;;30.10;16.60;;;;;;;0.94;68.56;100398.47;4971032;28;20041;-52
2022/03/20 06:11:26;;;;;;;32.60;17.23;;;;;;;0.86;67.49;100396.59;4962131;28;20042;-53
2022/03/20 06:13:51;;;;;;;29.15;15.70;;;;;;;1.11;67.81;100405.56;4967325;28;20033;-53
2022/03/20 06:16:18;;;;;;;31.65;16.65;;;;;;;1.29;64.63;100393.13;4962841;28;20493;-54
2022/03/20 06:18:43;;;;;;;28.15;16.38;;;;;;;1.12;66.12;100401.09;4963360;28;20365;-53
2022/03/20 06:21:10;;;;;;;27.98;16.25;;;;;;;0.88;66.30;100404.38;4967996;28;20122;-52
2022/03/20 06:23:35;;;;;;;30.25;16.33;;;;;;;0.94;66.40;100403.75;4971343;28;20035;-50
2022/03/20 06:26:01;;;;;;;27.52;16.67;;;;;;;1.06;65.30;100406.00;4966542;28;20053;-51
2022/03/20 06:28:26;;;;;;;29.45;16.65;;;;;;;1.10;65.59;100403.03;4970065;28;20054;-51
2022/03/20 06:30:52;;;;;;;26.02;16.33;;;;;;;1.21;66.55;100405.47;4955776;28;20043;-52
2022/03/20 06:33:18;;;;;;;29.88;16.52;;;;;;;1.34;65.10;100394.50;4966949;28;20023;-54
2022/03/20 06:35:43;;;;;;;32.90;16.85;;;;;;;1.25;64.72;100412.13;4965677;28;20042;-53
2022/03/20 06:38:09;;;;;;;30.00;17.20;;;;;;;1.26;64.93;100419.03;4957484;28;20390;-52
2022/03/20 06:40:34;;;;;;;31.60;18.10;;;;;;;0.98;65.44;100405.94;4957138;28;20047;-51
2022/03/20 06:42:59;;;;;;;27.25;16.50;;;;;;;1.51;66.42;100401.56;4960952;28;20058;-54
2022/03/20 06:45:25;;;;;;;31.77;17.30;;;;;;;1.46;63.91;100390.63;4959516;28;20493;-55
2022/03/20 06:47:50;;;;;;;33.80;17.27;;;;;;;1.39;64.39;100393.03;4967564;28;20043;-52
2022/03/20 06:50:16;;;;;;;29.83;17.25;;;;;;;1.61;64.17;100393.53;4967034;28;20050;-52
2022/03/20 06:52:41;;;;;;;33.38;17.27;;;;;;;1.55;65.08;100407.34;4964775;28;20038;-54
2022/03/20 06:55:08;;;;;;;30.25;16.67;;;;;;;1.77;64.26;100414.75;4969934;28;20043;-55
2022/03/20 06:57:35;;;;;;;30.60;15.93;;;;;;;1.93;63.65;100417.50;4966081;28;20498;-54
2022/03/20 07:00:01;;;;;;;28.25;17.42;;;;;;;2.41;62.22;100417.88;4963958;28;20031;-52
2022/03/20 07:02:26;;;;;;;28.73;16.73;;;;;;;2.67;60.93;100423.09;4966480;28;20046;-54
2022/03/20 07:04:52;;;;;;;28.95;17.25;;;;;;;3.25;58.78;100418.69;4968319;28;20465;-51
2022/03/20 07:07:18;;;;;;;30.65;16.35;;;;;;;4.38;55.74;100426.56;4968198;28;20449;-51
2022/03/20 07:09:43;;;;;;;29.48;17.70;;;;;;;5.41;52.99;100420.06;4969745;28;20141;-54
2022/03/20 07:12:10;;;;;;;32.35;18.08;;;;;;;6.26;50.44;100417.06;4958689;28;20050;-54
2022/03/20 07:14:35;;;;;;;29.38;16.88;;;;;;;6.76;48.67;100417.22;4963351;28;20367;-51
2022/03/20 07:17:09;;;;;;;37.80;17.40;;;;;;;7.01;47.92;100423.00;4961734;28;20031;-52
2022/03/20 07:19:39;;;;;;;26.17;16.23;;;;;;;7.35;46.94;100421.50;4967541;28;20533;-52
2022/03/20 07:22:05;;;;;;;33.63;18.23;;;;;;;7.45;46.47;100416.66;4968788;28;20057;-54
2022/03/20 07:24:32;;;;;;;29.45;17.85;;;;;;;7.39;46.50;100412.09;4963498;28;20032;-53
2022/03/20 07:29:41;;;;;;;32.03;17.50;;;;;;;7.57;45.29;100398.28;4959913;28;20608;-53
2022/03/20 07:32:09;;;;;;;31.58;19.50;;;;;;;7.10;47.09;100391.75;4969055;28;20055;-51
2022/03/20 07:34:35;;;;;;;29.40;18.55;;;;;;;6.92;47.40;100384.19;4968121;28;20388;-52
2022/03/20 07:37:01;;;;;;;35.38;21.00;;;;;;;6.76;48.11;100371.09;4966309;28;20043;-51
2022/03/20 07:39:27;;;;;;;33.80;22.02;;;;;;;6.50;49.00;100339.69;4961100;28;20043;-51
2022/03/20 07:41:53;;;;;;;38.60;21.02;;;;;;;6.82;48.99;100325.88;4965595;28;20069;-52
2022/03/20 07:44:18;;;;;;;35.15;21.35;;;;;;;7.31;48.23;100329.53;4969682;28;20027;-52
2022/03/20 07:46:44;;;;;;;38.45;23.50;;;;;;;7.14;48.13;100355.69;4968297;28;20440;-52
2022/03/20 07:49:10;;;;;;;34.03;21.15;;;;;;;8.53;45.99;100376.22;4964486;28;20338;-54
2022/03/20 07:51:35;;;;;;;31.88;20.05;;;;;;;8.55;44.91;100390.19;4958601;28;20429;-51
2022/03/20 07:54:01;;;;;;;32.17;20.77;;;;;;;9.40;44.19;100383.31;4964127;28;20346;-54
2022/03/20 07:56:28;;;;;;;34.42;21.05;;;;;;;8.52;44.16;100385.25;4968099;28;20073;-52
2022/03/20 07:58:54;;;;;;;33.45;20.42;;;;;;;6.33;48.60;100381.69;4963102;28;20085;-53
2022/03/20 08:01:20;;;;;;;33.22;21.35;;;;;;;5.78;50.46;100392.63;4960953;28;20051;-54
2022/03/20 08:03:46;;;;;;;33.78;20.25;;;;;;;5.58;50.85;100391.50;4964483;28;20332;-51
2022/03/20 08:06:12;;;;;;;33.03;20.00;;;;;;;5.34;50.77;100401.38;4960916;28;20405;-53
2022/03/20 08:08:39;;;;;;;31.75;19.00;;;;;;;5.67;51.21;100390.41;4965481;28;20474;-51
2022/03/20 08:11:05;;;;;;;33.92;20.05;;;;;;;5.64;50.75;100390.75;4965581;28;20050;-54
2022/03/20 08:13:31;;;;;;;34.15;20.55;;;;;;;5.69;50.88;100412.34;4958940;28;20050;-54
2022/03/20 08:16:00;;;;;;;29.08;15.23;;;;;;;5.38;51.37;100417.78;4961878;28;20035;-52
2022/03/20 08:18:25;;;;;;;31.75;18.50;;;;;;;5.38;52.30;100412.47;4965997;28;20404;-53
2022/03/20 08:20:51;;;;;;;33.83;20.25;;;;;;;5.83;50.83;100408.03;4960244;28;20525;-54
2022/03/20 08:23:16;;;;;;;34.42;19.45;;;;;;;6.44;50.37;100414.00;4958040;28;20528;-52
2022/03/20 08:25:42;;;;;;;33.80;19.17;;;;;;;6.36;50.92;100405.28;4957652;28;20039;-52
2022/03/20 08:28:09;;;;;;;34.80;19.10;;;;;;;5.72;50.88;100404.00;4961480;28;20027;-53
2022/03/20 08:30:36;;;;;;;35.42;19.30;;;;;;;5.95;51.21;100419.91;4967869;28;20161;-50
2022/03/20 08:33:01;;;;;;;34.42;19.73;;;;;;;5.91;53.89;100401.78;4958275;28;20490;-50
2022/03/20 08:35:27;;;;;;;32.25;19.08;;;;;;;6.97;48.93;100420.94;4960731;28;20039;-50
2022/03/20 08:37:55;;;;;;;32.40;19.63;;;;;;;6.85;48.24;100415.28;4961581;28;20034;-52
2022/03/20 08:40:21;;;;;;;31.88;19.55;;;;;;;6.92;47.52;100426.84;4961533;28;20090;-51
2022/03/20 08:42:54;;;;;;;29.50;17.33;;;;;;;6.95;47.77;100431.78;4966186;28;20041;-50
2022/03/20 08:45:21;;;;;;;28.70;18.27;;;;;;;6.95;48.09;100425.63;4966575;28;20034;-53
2022/03/20 08:47:46;;;;;;;34.53;20.38;;;;;;;6.63;48.37;100420.56;4965058;28;20047;-50
2022/03/20 08:50:15;;;;;;;34.95;19.95;;;;;;;7.00;49.36;100424.03;4956871;28;20507;-51
2022/03/20 08:52:44;;;;;;;32.40;18.90;;;;;;;6.72;50.33;100420.47;4959904;28;20039;-51
2022/03/20 08:55:10;;;;;;;33.97;18.20;;;;;;;6.92;49.49;100416.19;4958576;28;20035;-53
2022/03/20 08:57:46;;;;;;;34.55;19.30;;;;;;;8.25;47.15;100406.50;4931206;29;20031;-53
2022/03/20 09:00:13;;;;;;;32.78;18.80;;;;;;;7.47;48.23;100398.63;4931493;28;20095;-51
2022/03/20 09:02:38;;;;;;;31.08;19.55;;;;;;;8.41;46.11;100411.53;4945411;29;20012;-53
2022/03/20 09:05:05;;;;;;;37.20;21.27;;;;;;;7.12;50.21;100403.88;4936913;28;20563;-54
2022/03/20 09:07:30;;;;;;;35.72;21.10;;;;;;;7.03;49.94;100406.84;4934878;28;20074;-53
2022/03/20 09:09:56;;;;;;;30.00;19.42;;;;;;;7.52;48.39;100401.53;4920212;29;20044;-52
2022/03/20 09:12:21;;;;;;;35.75;20.50;;;;;;;6.91;49.46;100403.84;4955634;28;20050;-50
2022/03/20 09:14:47;;;;;;;34.30;19.70;;;;;;;7.42;49.51;100401.03;4965515;28;20033;-50
2022/03/20 09:19:57;;;;;;;31.88;20.60;;;;;;;7.01;50.34;100395.53;4941342;29;20098;-51
2022/03/20 09:22:25;;;;;;;36.97;21.00;;;;;;;7.16;49.68;100395.47;4927402;29;20054;-50
2022/03/20 09:24:51;;;;;;;37.55;20.40;;;;;;;7.20;50.06;100392.25;4944197;28;20027;-53
2022/03/20 09:27:16;;;;;;;29.50;18.17;;;;;;;7.38;49.65;100394.44;4946148;28;20047;-51
2022/03/20 09:29:42;;;;;;;32.35;20.25;;;;;;;7.17;50.07;100389.97;4951245;28;20359;-52
2022/03/20 09:32:08;;;;;;;38.30;24.33;;;;;;;7.12;50.51;100387.88;4933127;29;20047;-51
2022/03/20 09:34:33;;;;;;;35.97;22.85;;;;;;;7.46;49.79;100396.97;4951230;29;20381;-50
2022/03/20 09:36:59;;;;;;;33.35;20.65;;;;;;;7.50;50.69;100397.41;4951212;28;20054;-50
2022/03/20 09:39:26;;;;;;;36.70;21.63;;;;;;;7.50;49.98;100392.88;4951530;28;20035;-53
2022/03/20 09:41:51;;;;;;;32.85;19.85;;;;;;;7.38;50.98;100399.78;4952244;28;20047;-53
2022/03/20 09:44:18;;;;;;;32.88;19.77;;;;;;;7.73;50.17;100392.63;4935284;29;20027;-51
2022/03/20 09:46:43;;;;;;;44.47;24.70;;;;;;;7.59;48.74;100406.06;4944716;28;20126;-52
2022/03/20 09:49:09;;;;;;;33.33;21.58;;;;;;;7.67;48.88;100392.63;4932216;29;20043;-52
2022/03/20 09:51:34;;;;;;;38.83;20.63;;;;;;;7.66;48.90;100390.94;4948011;28;20050;-50
2022/03/20 09:54:00;;;;;;;36.38;22.52;;;;;;;7.77;50.16;100398.44;4940648;29;20279;-53
2022/03/20 09:56:25;;;;;;;35.60;21.95;;;;;;;8.11;49.24;100400.28;4949392;28;20050;-49
2022/03/20 09:58:51;;;;;;;31.45;20.20;;;;;;;7.97;49.14;100404.69;4944854;29;20035;-54
2022/03/20 10:01:16;;;;;;;37.80;21.48;;;;;;;7.89;49.50;100404.88;4940554;28;20044;-51
2022/03/20 10:03:42;;;;;;;32.50;21.10;;;;;;;7.86;48.82;100397.25;4933805;29;20382;-50
2022/03/20 10:06:15;;;;;;;35.65;21.23;;;;;;;8.53;49.03;100393.06;4943045;28;20402;-51
2022/03/20 10:08:56;;;;;;;30.35;19.98;;;;;;;8.17;49.62;100404.81;4945538;29;20046;-53
2022/03/20 10:11:21;;;;;;;32.08;20.48;;;;;;;8.16;49.99;100408.50;4944754;28;20489;-50
2022/03/20 10:14:19;;;;;;;38.85;26.13;;;;;;;8.60;48.23;100409.13;4946161;29;20035;-53
2022/03/20 10:16:49;;;;;;;31.80;19.35;;;;;;;8.53;48.60;100398.41;4932672;28;20498;-50
2022/03/20 10:19:23;;;;;;;31.67;20.02;;;;;;;8.08;49.69;100397.97;4943777;29;20047;-51
2022/03/20 10:22:14;;;;;;;33.95;20.65;;;;;;;8.23;49.96;100392.50;4947407;28;21001;-53
2022/03/20 10:24:50;;;;;;;32.42;21.73;;;;;;;8.15;50.76;100385.47;4941843;29;20453;-53
2022/03/20 10:27:15;;;;;;;24.00;15.75;;;;;;;8.21;50.86;100378.50;4950917;28;20043;-52
2022/03/20 10:29:48;;;;;;;36.63;21.30;;;;;;;8.74;50.30;100375.25;4942192;28;20047;-51
2022/03/20 10:32:13;;;;;;;35.33;21.90;;;;;;;9.01;50.12;100365.41;4946451;28;20663;-53
2022/03/20 10:34:51;;;;;;;31.85;20.83;;;;;;;9.47;49.68;100372.63;4951462;28;20034;-50
2022/03/20 10:37:18;;;;;;;37.90;23.90;;;;;;;9.26;51.30;100361.13;4947736;28;20414;-53
2022/03/20 10:39:43;;;;;;;36.65;21.27;;;;;;;9.58;51.72;100361.28;4942860;29;20504;-50
2022/03/20 10:42:13;;;;;;;39.80;23.63;;;;;;;9.77;49.20;100367.63;4936759;28;20032;-50
2022/03/20 10:44:39;;;;;;;34.00;22.02;;;;;;;9.88;48.22;100368.84;4950754;28;20098;-52
2022/03/20 10:47:18;;;;;;;35.80;19.88;;;;;;;9.71;48.80;100350.56;4948855;28;20062;-52
2022/03/20 10:49:50;;;;;;;34.38;20.85;;;;;;;10.82;47.91;100355.88;4946374;29;20086;-53
2022/03/20 10:52:19;;;;;;;37.40;23.63;;;;;;;10.50;49.09;100356.69;4928436;28;20188;-51
2022/03/20 10:54:46;;;;;;;35.70;24.02;;;;;;;10.08;48.70;100364.28;4947116;29;20043;-53
2022/03/20 10:57:13;;;;;;;33.85;23.30;;;;;;;9.91;49.71;100368.44;4948168;28;20110;-52
2022/03/20 10:59:39;;;;;;;32.55;19.92;;;;;;;9.36;51.03;100371.41;4950298;29;20039;-51
2022/03/20 11:02:08;;;;;;;38.13;23.67;;;;;;;9.65;50.34;100364.78;4945006;28;21186;-53
2022/03/20 11:04:34;;;;;;;33.08;21.17;;;;;;;9.92;50.58;100367.41;4942953;29;20030;-53
2022/03/20 11:07:00;;;;;;;32.13;21.38;;;;;;;9.77;50.92;100364.16;4960965;28;20043;-53
2022/03/20 11:09:26;;;;;;;36.25;22.73;;;;;;;10.01;50.16;100358.09;4958792;28;20408;-51
2022/03/20 11:11:58;;;;;;;23.10;15.10;;;;;;;9.86;50.91;100374.44;4964637;28;20038;-52
2022/03/20 11:14:25;;;;;;;35.00;20.00;;;;;;;10.02;50.08;100370.47;4968145;28;20031;-53
2022/03/20 11:17:04;;;;;;;32.10;20.77;;;;;;;10.05;49.67;100371.88;4964902;28;20047;-52
2022/03/20 11:19:30;;;;;;;31.92;20.10;;;;;;;10.33;50.02;100374.28;4965774;28;20105;-52
2022/03/20 11:22:06;;;;;;;30.95;20.70;;;;;;;10.45;51.19;100369.91;4976032;28;20047;-54
2022/03/20 11:24:32;;;;;;;34.53;20.83;;;;;;;10.73;51.70;100366.88;4965505;28;20031;-54
2022/03/20 11:27:00;;;;;;;26.15;14.32;;;;;;;10.56;52.63;100366.56;4965544;28;20050;-52
2022/03/20 11:29:25;;;;;;;28.08;20.05;;;;;;;10.64;52.75;100364.66;4969657;28;20042;-51
2022/03/20 11:31:51;;;;;;;34.92;21.75;;;;;;;10.48;53.00;100374.84;4962284;28;20039;-52
2022/03/20 11:34:16;;;;;;;33.35;19.85;;;;;;;10.43;54.12;100381.88;4969452;28;20031;-51
2022/03/20 11:37:03;;;;;;;32.92;20.23;;;;;;;10.15;54.51;100391.84;4960069;28;20050;-50
2022/03/20 11:39:28;;;;;;;29.27;17.73;;;;;;;10.41;54.83;100366.03;4962786;28;20027;-53
2022/03/20 11:42:22;;;;;;;31.63;20.15;;;;;;;10.47;54.32;100357.13;4963531;28;20046;-51
2022/03/20 11:45:12;;;;;;;32.38;19.70;;;;;;;10.76;54.00;100360.25;4969813;28;20039;-52
2022/03/20 11:47:41;;;;;;;32.38;20.48;;;;;;;10.46;54.15;100366.19;4938824;29;20118;-51
2022/03/20 11:50:23;;;;;;;30.02;18.52;;;;;;;10.62;54.03;100369.41;4942191;28;20031;-51